createdAt,value
2022-10-25T00:03:10.841Z,15.64
2022-10-25T00:08:09.121Z,14.82
2022-10-25T00:13:06.504Z,15.20
2022-10-25T00:18:14.010Z,15.61
2022-10-25T00:23:14.409Z,14.79
2022-10-25T00:28:16.794Z,15.19
2022-10-25T00:33:14.036Z,15.56
2022-10-25T00:38:12.051Z,15.52
2022-10-25T00:43:09.921Z,15.32
2022-10-25T00:48:11.711Z,15.01
2022-10-25T00:53:13.715Z,15.04
2022-10-25T00:58:14.583Z,15.32
2022-10-25T01:03:12.562Z,15.03
2022-10-25T01:08:12.711Z,15.39
2022-10-25T01:13:10.448Z,15.31
2022-10-25T01:18:15.070Z,15.40
2022-10-25T01:23:28.082Z,14.89
2022-10-25T01:28:37.731Z,15.36
2022-10-25T01:33:49.819Z,15.07
2022-10-25T01:38:51.324Z,15.25
2022-10-25T01:44:00.519Z,14.96
2022-10-25T01:49:02.940Z,15.21
2022-10-25T01:53:59.796Z,15.09
2022-10-25T01:59:23.429Z,14.53
2022-10-25T02:04:33.392Z,15.18
2022-10-25T02:09:33.744Z,15.15
2022-10-25T02:14:35.064Z,14.76
2022-10-25T02:19:35.552Z,15.01
2022-10-25T02:24:35.788Z,14.86
2022-10-25T02:29:35.371Z,14.73
2022-10-25T02:34:33.426Z,14.62
2022-10-25T02:39:33.953Z,14.46
2022-10-25T02:44:31.178Z,14.54
2022-10-25T02:49:28.371Z,14.70
2022-10-25T02:54:26.123Z,14.25
2022-10-25T02:59:23.355Z,14.78
2022-10-25T03:04:20.295Z,14.85
2022-10-25T03:09:17.284Z,14.92
2022-10-25T03:14:18.182Z,14.70
2022-10-25T03:19:15.176Z,14.73
2022-10-25T03:24:12.056Z,14.60
2022-10-25T03:29:08.987Z,14.77
2022-10-25T03:34:06.683Z,14.67
2022-10-25T03:39:03.586Z,14.63
2022-10-25T03:44:00.474Z,14.73
2022-10-25T03:48:57.300Z,14.48
2022-10-25T03:53:54.836Z,14.59
2022-10-25T03:58:53.371Z,14.49
2022-10-25T04:03:51.626Z,14.25
2022-10-25T04:08:48.828Z,13.98
2022-10-25T04:13:48.271Z,14.43
2022-10-25T04:18:45.270Z,14.34
2022-10-25T04:23:54.335Z,14.53
2022-10-25T04:29:09.787Z,14.53
2022-10-25T04:34:27.210Z,14.06
2022-10-25T04:39:25.676Z,14.51
2022-10-25T04:44:23.505Z,14.54
2022-10-25T04:49:21.574Z,14.30
2022-10-25T04:54:18.703Z,14.55
2022-10-25T04:59:24.360Z,14.43
2022-10-25T05:04:32.721Z,14.62
2022-10-25T05:09:33.240Z,14.71
2022-10-25T05:14:33.563Z,14.70
2022-10-25T05:19:32.284Z,14.69
2022-10-25T05:24:29.581Z,14.84
2022-10-25T05:29:26.848Z,14.89
2022-10-25T05:34:24.508Z,14.52
2022-10-25T05:39:37.037Z,15.28
2022-10-25T05:44:39.223Z,15.06
2022-10-25T05:49:41.943Z,14.97
2022-10-25T05:54:40.154Z,15.60
2022-10-25T05:59:37.030Z,15.94
2022-10-25T06:04:34.387Z,15.91
2022-10-25T06:15:18.275Z,16.26
2022-10-25T06:20:17.287Z,16.30
2022-10-25T06:25:19.639Z,16.98
2022-10-25T06:30:16.838Z,16.94
2022-10-25T06:35:56.062Z,17.32
2022-10-25T06:40:52.184Z,17.17
2022-10-25T06:45:49.287Z,17.89
2022-10-25T06:50:48.554Z,18.10
2022-10-25T06:55:48.992Z,18.32
2022-10-25T07:00:48.892Z,18.47
2022-10-25T07:05:46.717Z,18.62
2022-10-25T07:10:55.246Z,19.19
2022-10-25T07:15:56.377Z,19.04
2022-10-25T07:21:06.657Z,19.65
2022-10-25T07:26:11.066Z,19.70
2022-10-25T07:31:19.393Z,19.91
2022-10-25T07:36:18.513Z,20.29
2022-10-25T07:41:27.052Z,20.44
2022-10-25T07:46:24.782Z,20.67
2022-10-25T07:51:22.207Z,20.92
2022-10-25T07:56:23.491Z,21.00
2022-10-25T08:01:26.648Z,21.33
2022-10-25T08:06:25.334Z,21.52
2022-10-25T08:11:22.168Z,21.69
2022-10-25T08:16:19.126Z,21.57
2022-10-25T08:21:16.645Z,21.37
2022-10-25T08:26:24.524Z,21.35
2022-10-25T08:31:31.322Z,21.26
2022-10-25T08:36:29.052Z,21.00
2022-10-25T08:41:33.972Z,21.53
2022-10-25T08:46:34.083Z,21.69
2022-10-25T08:51:41.662Z,21.25
2022-10-25T08:56:46.586Z,21.67
2022-10-25T09:01:47.363Z,21.71
2022-10-25T09:06:56.241Z,22.00
2022-10-25T09:12:05.312Z,22.25
2022-10-25T09:17:23.755Z,21.80
2022-10-25T09:22:27.523Z,22.42
2022-10-25T09:27:34.930Z,22.48
2022-10-25T09:32:52.683Z,22.85
2022-10-25T09:37:55.345Z,22.47
2022-10-25T09:42:56.371Z,22.84
2022-10-25T09:48:01.808Z,22.98
2022-10-25T09:53:09.923Z,22.92
2022-10-25T09:58:16.091Z,22.94
2022-10-25T10:03:14.275Z,23.31
2022-10-25T10:08:17.375Z,23.44
2022-10-25T10:13:20.219Z,23.25
2022-10-25T10:18:29.116Z,23.08
2022-10-25T10:23:28.433Z,23.29
2022-10-25T10:28:25.576Z,23.36
2022-10-25T10:33:23.043Z,22.96
2022-10-25T10:43:30.205Z,23.24
2022-10-25T10:48:36.717Z,23.14
2022-10-25T10:53:37.415Z,23.43
2022-10-25T10:58:38.503Z,23.43
2022-10-25T11:03:59.141Z,23.61
2022-10-25T11:09:15.630Z,23.45
2022-10-25T11:14:15.139Z,23.96
2022-10-25T11:19:26.937Z,23.85
2022-10-25T11:24:32.012Z,24.42
2022-10-25T11:30:03.605Z,24.60
2022-10-25T11:35:10.101Z,24.92
2022-10-25T11:40:15.995Z,25.12
2022-10-25T11:51:14.318Z,25.13
2022-10-25T11:56:23.171Z,25.52
2022-10-25T12:01:35.207Z,25.51
2022-10-25T12:06:40.386Z,25.31
2022-10-25T12:11:53.463Z,25.66
2022-10-25T12:17:23.771Z,25.68
2022-10-25T12:22:30.820Z,25.59
2022-10-25T12:27:44.172Z,25.90
2022-10-25T12:32:49.917Z,25.93
2022-10-25T12:38:18.185Z,25.75
2022-10-25T12:43:24.034Z,26.09
2022-10-25T12:48:50.028Z,26.09
2022-10-25T12:54:12.665Z,26.06
2022-10-25T12:59:34.439Z,25.71
2022-10-25T13:05:31.221Z,25.49
2022-10-25T13:10:57.953Z,25.75
2022-10-25T13:16:04.330Z,25.53
2022-10-25T13:21:02.415Z,25.19
2022-10-25T13:26:09.176Z,25.40
2022-10-25T13:32:01.337Z,25.49
2022-10-25T13:37:00.252Z,25.41
2022-10-25T13:42:10.367Z,25.16
2022-10-25T13:47:28.682Z,25.14
2022-10-25T13:52:30.952Z,24.64
2022-10-25T13:58:10.431Z,25.06
2022-10-25T14:03:46.870Z,24.68
2022-10-25T14:08:54.611Z,24.66
2022-10-25T14:14:02.304Z,24.64
2022-10-25T14:19:07.170Z,24.50
2022-10-25T14:24:12.163Z,23.96
2022-10-25T14:29:32.603Z,24.25
2022-10-25T14:34:33.482Z,23.86
2022-10-25T14:40:05.642Z,23.72
2022-10-25T14:45:41.108Z,24.17
2022-10-25T14:50:56.938Z,23.90
2022-10-25T14:55:59.644Z,23.95
2022-10-25T15:01:05.290Z,23.74
2022-10-25T15:06:07.507Z,23.22
2022-10-25T15:11:10.406Z,23.41
2022-10-25T15:16:37.778Z,23.19
2022-10-25T15:21:43.238Z,23.44
2022-10-25T15:27:01.367Z,23.05
2022-10-25T15:32:02.492Z,23.27
2022-10-25T15:37:16.357Z,22.89
2022-10-25T15:47:28.961Z,23.02
2022-10-25T15:52:27.535Z,22.73
2022-10-25T15:57:28.142Z,22.69
2022-10-25T16:03:38.846Z,22.48
2022-10-25T16:08:38.099Z,22.33
2022-10-25T16:13:38.827Z,22.30
2022-10-25T16:18:38.572Z,22.02
2022-10-25T16:23:40.879Z,22.29
2022-10-25T16:28:54.303Z,22.20
2022-10-25T16:34:10.988Z,21.62
2022-10-25T16:39:12.154Z,22.03
2022-10-25T16:44:18.049Z,21.95
2022-10-25T16:49:21.279Z,21.78
2022-10-25T16:54:30.284Z,21.62
2022-10-25T16:59:28.770Z,21.18
2022-10-25T17:04:28.118Z,21.21
2022-10-25T17:09:29.668Z,21.31
2022-10-25T17:14:35.062Z,20.92
2022-10-25T17:19:36.969Z,21.18
2022-10-25T17:24:39.053Z,21.23
2022-10-25T17:29:38.137Z,21.20
2022-10-25T17:34:38.810Z,20.91
2022-10-25T17:39:59.096Z,20.64
2022-10-25T17:45:16.635Z,20.82
2022-10-25T17:50:16.687Z,21.22
2022-10-25T17:55:18.898Z,20.80
2022-10-25T18:00:16.828Z,20.91
2022-10-25T18:05:20.203Z,20.68
2022-10-25T18:10:19.182Z,20.21
2022-10-25T18:15:16.413Z,20.23
2022-10-25T18:20:17.683Z,20.50
2022-10-25T18:25:15.108Z,20.43
2022-10-25T18:30:16.839Z,20.59
2022-10-25T18:35:14.345Z,20.26
2022-10-25T18:40:13.731Z,20.27
2022-10-25T18:45:10.627Z,20.59
2022-10-25T18:50:11.626Z,20.41
2022-10-25T18:55:09.116Z,20.39
2022-10-25T19:00:08.392Z,20.29
2022-10-25T19:10:03.715Z,20.51
2022-10-25T19:15:00.713Z,20.46
2022-10-25T19:20:04.137Z,20.10
2022-10-25T19:25:04.987Z,20.47
2022-10-25T19:30:02.182Z,20.07
2022-10-25T19:34:59.458Z,20.40
2022-10-25T19:39:58.243Z,20.40
2022-10-25T19:44:56.906Z,20.38
2022-10-25T19:49:53.796Z,20.25
2022-10-25T19:54:50.940Z,19.86
2022-10-25T19:59:47.961Z,19.68
2022-10-25T20:04:45.753Z,20.22
2022-10-25T20:09:47.272Z,19.76
2022-10-25T20:14:44.428Z,19.92
2022-10-25T20:19:41.469Z,19.90
2022-10-25T20:24:39.401Z,19.53
2022-10-25T20:29:44.796Z,19.87
2022-10-25T20:34:41.832Z,19.38
2022-10-25T20:39:39.693Z,19.73
2022-10-25T20:44:36.924Z,19.31
2022-10-25T20:49:34.537Z,19.46
2022-10-25T20:54:34.423Z,19.64
2022-10-25T20:59:33.205Z,19.34
2022-10-25T21:04:52.771Z,19.37
2022-10-25T21:09:49.504Z,19.64
2022-10-25T21:14:47.526Z,19.59
2022-10-25T21:19:44.589Z,19.35
2022-10-25T21:24:41.527Z,19.33
2022-10-25T21:29:39.537Z,19.47
2022-10-25T21:34:37.106Z,19.29
2022-10-25T21:39:33.936Z,18.82
2022-10-25T21:44:30.751Z,19.32
2022-10-25T21:49:27.716Z,18.88
2022-10-25T21:54:27.689Z,19.23
2022-10-25T21:59:24.638Z,19.18
2022-10-25T22:04:23.242Z,19.08
2022-10-25T22:09:20.258Z,18.97
2022-10-25T22:14:18.023Z,18.62
2022-10-25T22:19:16.705Z,18.99
2022-10-25T22:24:14.167Z,18.94
2022-10-25T22:29:12.876Z,18.90
2022-10-25T22:34:10.401Z,18.88
2022-10-25T22:39:08.015Z,18.36
2022-10-25T22:44:05.206Z,18.81
2022-10-25T22:49:05.657Z,18.79
2022-10-25T22:54:03.513Z,18.77
2022-10-25T22:59:02.688Z,18.42
2022-10-25T23:04:01.008Z,18.64
2022-10-25T23:08:59.831Z,18.68
2022-10-25T23:14:01.023Z,18.18
2022-10-25T23:18:59.915Z,18.57
2022-10-25T23:23:58.056Z,18.25
2022-10-25T23:28:55.809Z,18.35
2022-10-25T23:33:54.879Z,18.36
2022-10-25T23:38:52.947Z,18.44
2022-10-25T23:43:50.431Z,18.21
2022-10-25T23:48:47.500Z,18.42
2022-10-25T23:53:45.215Z,18.05
2022-10-25T23:58:42.715Z,18.47
